KFMH/FMH METAR and TAF weather

Enter ICAO airport designator
Station Type Date Time Source
KFMH METAR 2019/10/14 06:50 UTC NOAA

KFMH 140650Z 14003KT 10SM SCT060 BKN075 10/10 A3003


Station Type Date Time Source
KFMH Decoded METAR 2019/10/14 06:50 UTC NOAA

Otis Air National Guard Base, MA, United States (KFMH) 41-39N 070-31W
Oct 14, 2019 - 02:50 AM EDT / 2019.10.14 0650 UTC
Wind: from the SE (140 degrees) at 3 MPH (3 KT):0
Visibility: 10 mile(s):0
Sky conditions: mostly cloudy
Temperature: 50 F (10 C)
Dew Point: 50 F (10 C)
Relative Humidity: 100%
Pressure (altimeter): 30.03 in. Hg (1016 hPa)
ob: KFMH 140650Z 14003KT 10SM SCT060 BKN075 10/10 A3003
cycle: 7

Station Type Date Time Source
KFMH TAF 2019/10/14 06:24 UTC NOAA

TAF KFMH 140523Z 1406/1506 16004KT P6SM OVC070
FM140900 14004KT P6SM -SHRA OVC015
FM141200 12005KT 6SM -SHRA BR OVC008
FM141700 16007KT P6SM BKN008
FM142200 24007KT P6SM SCT015
FM150400 30005KT P6SM SCT200

Example: see airport list